Calamonte, Spain
Current Conditions -  °F | °C
As of 1:00 PM on Friday 28 Nov 2014 (Local Time) from LEBZ Reporting Station
Scattered Clouds Scattered Clouds  
Wind Chill: 57°   Ceiling: Unl
Heat Index: 57°   Visibility: 6mi
Dew Point: 50°   Wind: 8mph
Humidity: 77%   Direction: 260°W
Pressure: 29.09"   Gusts: NA
Location:  38.89°N, 6.39°W
Report Text: LEBZ 281200Z 26007KT 9999 FEW020TCU SCT025 14/10 Q0985
Loading
Personal Weather Stations






























Interactive Weather Map New forecast layout! Learn more

10-Day Weather Forecast

Advertisements
Track Severe Weather on mobile